sensor_id;sensor_type;location;lat;lon;timestamp;pressure;altitude;pressure_sealevel;temperature;humidity
76762;BME280;65705;51.032;13.790;2023-04-23T00:00:39;99571.72;;;15.34;54.50
76762;BME280;65705;51.032;13.790;2023-04-23T00:03:07;99568.25;;;15.34;54.83
76762;BME280;65705;51.032;13.790;2023-04-23T00:05:35;99563.78;;;15.34;54.74
76762;BME280;65705;51.032;13.790;2023-04-23T00:08:02;99565.19;;;15.37;55.02
76762;BME280;65705;51.032;13.790;2023-04-23T00:10:28;99560.75;;;15.31;55.18
76762;BME280;65705;51.032;13.790;2023-04-23T00:12:54;99554.63;;;15.30;55.10
76762;BME280;65705;51.032;13.790;2023-04-23T00:15:20;99562.78;;;15.29;55.23
76762;BME280;65705;51.032;13.790;2023-04-23T00:17:47;99558.09;;;15.31;54.78
76762;BME280;65705;51.032;13.790;2023-04-23T00:20:16;99560.31;;;15.27;55.05
76762;BME280;65705;51.032;13.790;2023-04-23T00:22:42;99553.19;;;15.28;54.81
76762;BME280;65705;51.032;13.790;2023-04-23T00:25:09;99550.13;;;15.24;55.39
76762;BME280;65705;51.032;13.790;2023-04-23T00:27:35;99543.81;;;15.19;55.14
76762;BME280;65705;51.032;13.790;2023-04-23T00:30:02;99547.09;;;15.21;55.29
76762;BME280;65705;51.032;13.790;2023-04-23T00:32:30;99543.41;;;15.15;55.82
76762;BME280;65705;51.032;13.790;2023-04-23T00:34:56;99539.38;;;15.13;55.80
76762;BME280;65705;51.032;13.790;2023-04-23T00:37:22;99537.31;;;15.08;55.92
76762;BME280;65705;51.032;13.790;2023-04-23T00:39:48;99540.16;;;15.13;55.90
76762;BME280;65705;51.032;13.790;2023-04-23T00:42:14;99534.25;;;15.11;55.75
76762;BME280;65705;51.032;13.790;2023-04-23T00:44:42;99534.25;;;15.11;55.80
76762;BME280;65705;51.032;13.790;2023-04-23T00:47:08;99536.50;;;15.08;55.99
76762;BME280;65705;51.032;13.790;2023-04-23T00:49:35;99538.56;;;15.06;56.16
76762;BME280;65705;51.032;13.790;2023-04-23T00:52:04;99536.69;;;15.06;56.47
76762;BME280;65705;51.032;13.790;2023-04-23T00:54:30;99532.44;;;15.05;56.32
76762;BME280;65705;51.032;13.790;2023-04-23T00:56:56;99533.25;;;15.06;56.24
76762;BME280;65705;51.032;13.790;2023-04-23T00:59:24;99537.31;;;15.02;56.61
76762;BME280;65705;51.032;13.790;2023-04-23T01:01:51;99533.22;;;14.99;56.54
76762;BME280;65705;51.032;13.790;2023-04-23T01:04:18;99532.81;;;14.96;56.90
76762;BME280;65705;51.032;13.790;2023-04-23T01:06:45;99539.13;;;14.95;56.94
76762;BME280;65705;51.032;13.790;2023-04-23T01:09:12;99541.16;;;14.93;56.81
76762;BME280;65705;51.032;13.790;2023-04-23T01:11:39;99530.59;;;14.93;56.88
76762;BME280;65705;51.032;13.790;2023-04-23T01:14:07;99536.69;;;14.93;56.90
76762;BME280;65705;51.032;13.790;2023-04-23T01:16:37;99539.94;;;14.95;56.73
76762;BME280;65705;51.032;13.790;2023-04-23T01:19:07;99537.28;;;14.95;56.65
76762;BME280;65705;51.032;13.790;2023-04-23T01:21:34;99539.34;;;14.93;56.91
76762;BME280;65705;51.032;13.790;2023-04-23T01:24:02;99544.63;;;14.93;57.37
76762;BME280;65705;51.032;13.790;2023-04-23T01:26:28;99543.59;;;14.94;57.26
76762;BME280;65705;51.032;13.790;2023-04-23T01:28:55;99539.50;;;14.92;57.29
76762;BME280;65705;51.032;13.790;2023-04-23T01:31:21;99538.91;;;14.90;57.16
76762;BME280;65705;51.032;13.790;2023-04-23T01:33:49;99535.66;;;14.88;57.34
76762;BME280;65705;51.032;13.790;2023-04-23T01:36:17;99524.91;;;14.89;56.94
76762;BME280;65705;51.032;13.790;2023-04-23T01:38:43;99534.22;;;14.85;57.05
76762;BME280;65705;51.032;13.790;2023-04-23T01:41:09;99532.63;;;14.84;57.40
76762;BME280;65705;51.032;13.790;2023-04-23T01:43:36;99538.06;;;14.82;57.75
76762;BME280;65705;51.032;13.790;2023-04-23T01:46:02;99534.41;;;14.77;57.68
76762;BME280;65705;51.032;13.790;2023-04-23T01:48:28;99549.47;;;14.76;57.57
76762;BME280;65705;51.032;13.790;2023-04-23T01:50:54;99537.44;;;14.74;57.67
76762;BME280;65705;51.032;13.790;2023-04-23T01:53:21;99537.44;;;14.67;57.79
76762;BME280;65705;51.032;13.790;2023-04-23T01:55:47;99533.56;;;14.63;58.11
76762;BME280;65705;51.032;13.790;2023-04-23T01:58:13;99530.91;;;14.63;58.01
76762;BME280;65705;51.032;13.790;2023-04-23T02:00:39;99537.22;;;14.62;57.74
76762;BME280;65705;51.032;13.790;2023-04-23T02:03:05;99536.41;;;14.62;57.60
76762;BME280;65705;51.032;13.790;2023-04-23T02:05:33;99534.59;;;14.69;57.71
76762;BME280;65705;51.032;13.790;2023-04-23T02:08:00;99535.00;;;14.66;57.73
76762;BME280;65705;51.032;13.790;2023-04-23T02:10:26;99529.31;;;14.62;58.14
76762;BME280;65705;51.032;13.790;2023-04-23T02:12:52;99526.03;;;14.60;58.28
76762;BME280;65705;51.032;13.790;2023-04-23T02:15:18;99522.59;;;14.60;58.50
76762;BME280;65705;51.032;13.790;2023-04-23T02:17:44;99531.28;;;14.54;58.49
76762;BME280;65705;51.032;13.790;2023-04-23T02:20:10;99525.41;;;14.52;58.70
76762;BME280;65705;51.032;13.790;2023-04-23T02:22:38;99531.91;;;14.56;58.76
76762;BME280;65705;51.032;13.790;2023-04-23T02:25:05;99531.13;;;14.62;58.46
76762;BME280;65705;51.032;13.790;2023-04-23T02:27:32;99523.59;;;14.59;58.36
76762;BME280;65705;51.032;13.790;2023-04-23T02:29:58;99529.88;;;14.58;58.77
76762;BME280;65705;51.032;13.790;2023-04-23T02:32:24;99535.16;;;14.58;58.66
76762;BME280;65705;51.032;13.790;2023-04-23T02:34:51;99533.56;;;14.57;58.75
76762;BME280;65705;51.032;13.790;2023-04-23T02:37:17;99530.50;;;14.60;58.59
76762;BME280;65705;51.032;13.790;2023-04-23T02:39:45;99536.81;;;14.59;59.01
76762;BME280;65705;51.032;13.790;2023-04-23T02:42:12;99543.50;;;14.61;59.00
76762;BME280;65705;51.032;13.790;2023-04-23T02:44:38;99545.38;;;14.67;58.81
76762;BME280;65705;51.032;13.790;2023-04-23T02:47:03;99535.22;;;14.64;58.82
76762;BME280;65705;51.032;13.790;2023-04-23T02:49:29;99532.56;;;14.64;59.43
76762;BME280;65705;51.032;13.790;2023-04-23T02:51:55;99528.69;;;14.67;58.81
76762;BME280;65705;51.032;13.790;2023-04-23T02:54:21;99531.53;;;14.65;59.04
76762;BME280;65705;51.032;13.790;2023-04-23T02:56:47;99534.97;;;14.59;59.02
76762;BME280;65705;51.032;13.790;2023-04-23T02:59:12;99536.97;;;14.57;59.29
76762;BME280;65705;51.032;13.790;2023-04-23T03:01:38;99532.72;;;14.56;59.28
76762;BME280;65705;51.032;13.790;2023-04-23T03:04:06;99534.97;;;14.59;59.55
76762;BME280;65705;51.032;13.790;2023-04-23T03:06:32;99536.41;;;14.62;59.40
76762;BME280;65705;51.032;13.790;2023-04-23T03:09:00;99530.50;;;14.60;59.50
76762;BME280;65705;51.032;13.790;2023-04-23T03:11:26;99527.88;;;14.60;59.12
76762;BME280;65705;51.032;13.790;2023-04-23T03:13:52;99528.88;;;14.59;59.01
76762;BME280;65705;51.032;13.790;2023-04-23T03:16:18;99528.06;;;14.58;59.10
76762;BME280;65705;51.032;13.790;2023-04-23T03:18:45;99520.56;;;14.55;58.92
76762;BME280;65705;51.032;13.790;2023-04-23T03:21:10;99515.06;;;14.57;58.77
76762;BME280;65705;51.032;13.790;2023-04-23T03:23:37;99504.28;;;14.58;58.32
76762;BME280;65705;51.032;13.790;2023-04-23T03:26:02;99507.94;;;14.57;58.63
76762;BME280;65705;51.032;13.790;2023-04-23T03:28:29;99503.28;;;14.59;58.29
76762;BME280;65705;51.032;13.790;2023-04-23T03:30:55;99508.97;;;14.56;58.44
76762;BME280;65705;51.032;13.790;2023-04-23T03:33:21;99506.13;;;14.58;58.24
76762;BME280;65705;51.032;13.790;2023-04-23T03:35:47;99496.00;;;14.68;57.64
76762;BME280;65705;51.032;13.790;2023-04-23T03:38:17;99495.38;;;14.66;57.78
76762;BME280;65705;51.032;13.790;2023-04-23T03:40:43;99488.44;;;14.65;57.35
76762;BME280;65705;51.032;13.790;2023-04-23T03:43:10;99481.97;;;14.67;56.97
76762;BME280;65705;51.032;13.790;2023-04-23T03:45:54;99466.94;;;14.68;56.72
76762;BME280;65705;51.032;13.790;2023-04-23T03:48:21;99470.78;;;14.72;56.61
76762;BME280;65705;51.032;13.790;2023-04-23T03:50:47;99472.84;;;14.76;56.66
76762;BME280;65705;51.032;13.790;2023-04-23T03:53:27;99479.53;;;14.79;56.37
76762;BME280;65705;51.032;13.790;2023-04-23T03:56:11;99487.69;;;14.84;56.62
76762;BME280;65705;51.032;13.790;2023-04-23T03:58:46;99484.44;;;14.89;56.62
76762;BME280;65705;51.032;13.790;2023-04-23T04:01:12;99466.97;;;14.88;56.50
76762;BME280;65705;51.032;13.790;2023-04-23T04:03:38;99470.81;;;14.85;56.38
76762;BME280;65705;51.032;13.790;2023-04-23T04:06:04;99484.22;;;14.90;56.31
76762;BME280;65705;51.032;13.790;2023-04-23T04:08:30;99477.53;;;14.94;56.23
76762;BME280;65705;51.032;13.790;2023-04-23T04:10:57;99474.91;;;14.94;56.35
76762;BME280;65705;51.032;13.790;2023-04-23T04:13:22;99468.38;;;14.90;56.42
76762;BME280;65705;51.032;13.790;2023-04-23T04:15:48;99468.16;;;14.92;56.82
76762;BME280;65705;51.032;13.790;2023-04-23T04:18:14;99474.28;;;14.92;57.36
76762;BME280;65705;51.032;13.790;2023-04-23T04:20:40;99470.81;;;14.92;57.18
76762;BME280;65705;51.032;13.790;2023-04-23T04:23:08;99482.81;;;14.94;57.42
76762;BME280;65705;51.032;13.790;2023-04-23T04:25:34;99488.50;;;14.98;57.59
76762;BME280;65705;51.032;13.790;2023-04-23T04:28:05;99478.75;;;14.98;57.26
76762;BME280;65705;51.032;13.790;2023-04-23T04:30:32;99479.38;;;15.00;57.46
76762;BME280;65705;51.032;13.790;2023-04-23T04:32:58;99486.91;;;15.03;57.34
76762;BME280;65705;51.032;13.790;2023-04-23T04:35:26;99496.66;;;15.03;57.60
76762;BME280;65705;51.032;13.790;2023-04-23T04:37:51;99492.59;;;15.07;57.61
76762;BME280;65705;51.032;13.790;2023-04-23T04:40:18;99495.84;;;15.09;57.17
76762;BME280;65705;51.032;13.790;2023-04-23T04:42:44;99497.88;;;15.13;57.25
76762;BME280;65705;51.032;13.790;2023-04-23T04:45:11;99500.91;;;15.17;56.92
76762;BME280;65705;51.032;13.790;2023-04-23T04:47:36;99496.25;;;15.19;57.27
76762;BME280;65705;51.032;13.790;2023-04-23T04:50:04;99500.09;;;15.29;57.12
76762;BME280;65705;51.032;13.790;2023-04-23T04:52:30;99505.78;;;15.33;56.74
76762;BME280;65705;51.032;13.790;2023-04-23T04:54:56;99501.94;;;15.35;57.03
76762;BME280;65705;51.032;13.790;2023-04-23T04:57:21;99508.91;;;15.43;57.18
76762;BME280;65705;51.032;13.790;2023-04-23T04:59:48;99508.47;;;15.52;56.77
76762;BME280;65705;51.032;13.790;2023-04-23T05:02:14;99501.75;;;15.56;56.85
76762;BME280;65705;51.032;13.790;2023-04-23T05:04:40;99497.69;;;15.54;56.90
76762;BME280;65705;51.032;13.790;2023-04-23T05:07:06;99492.81;;;15.57;56.65
76762;BME280;65705;51.032;13.790;2023-04-23T05:09:32;99504.19;;;15.64;56.54
76762;BME280;65705;51.032;13.790;2023-04-23T05:11:58;99508.03;;;15.68;56.35
76762;BME280;65705;51.032;13.790;2023-04-23T05:14:24;99510.06;;;15.73;56.54
76762;BME280;65705;51.032;13.790;2023-04-23T05:16:51;99520.44;;;15.74;56.29
76762;BME280;65705;51.032;13.790;2023-04-23T05:19:16;99518.00;;;15.79;56.66
76762;BME280;65705;51.032;13.790;2023-04-23T05:21:42;99511.69;;;15.80;56.47
76762;BME280;65705;51.032;13.790;2023-04-23T05:24:08;99519.22;;;15.77;56.37
76762;BME280;65705;51.032;13.790;2023-04-23T05:26:34;99514.72;;;15.77;56.62
76762;BME280;65705;51.032;13.790;2023-04-23T05:29:00;99521.66;;;15.78;56.58
76762;BME280;65705;51.032;13.790;2023-04-23T05:31:26;99518.81;;;15.80;56.56
76762;BME280;65705;51.032;13.790;2023-04-23T05:33:52;99524.69;;;15.89;56.46
76762;BME280;65705;51.032;13.790;2023-04-23T05:36:18;99532.03;;;15.87;56.71
76762;BME280;65705;51.032;13.790;2023-04-23T05:38:44;99529.59;;;15.92;56.68
76762;BME280;65705;51.032;13.790;2023-04-23T05:41:10;99528.16;;;15.89;56.69
76762;BME280;65705;51.032;13.790;2023-04-23T05:43:35;99528.56;;;15.93;56.70
76762;BME280;65705;51.032;13.790;2023-04-23T05:46:08;99532.22;;;15.98;56.60
76762;BME280;65705;51.032;13.790;2023-04-23T05:48:34;99537.09;;;16.01;56.75
76762;BME280;65705;51.032;13.790;2023-04-23T05:50:59;99538.94;;;16.01;56.74
76762;BME280;65705;51.032;13.790;2023-04-23T05:53:26;99526.34;;;15.83;57.73
76762;BME280;65705;51.032;13.790;2023-04-23T05:55:52;99533.25;;;15.77;57.72
76762;BME280;65705;51.032;13.790;2023-04-23T05:58:18;99538.56;;;15.84;57.65
76762;BME280;65705;51.032;13.790;2023-04-23T06:00:44;99534.06;;;15.91;57.22
76762;BME280;65705;51.032;13.790;2023-04-23T06:03:10;99530.59;;;15.91;57.01
76762;BME280;65705;51.032;13.790;2023-04-23T06:05:36;99529.59;;;15.92;57.51
76762;BME280;65705;51.032;13.790;2023-04-23T06:08:03;99532.00;;;16.00;57.52
76762;BME280;65705;51.032;13.790;2023-04-23T06:10:28;99528.75;;;15.98;57.73
76762;BME280;65705;51.032;13.790;2023-04-23T06:12:54;99524.47;;;16.03;57.67
76762;BME280;65705;51.032;13.790;2023-04-23T06:15:20;99526.50;;;16.08;57.70
76762;BME280;65705;51.032;13.790;2023-04-23T06:17:47;99529.31;;;16.13;57.64
76762;BME280;65705;51.032;13.790;2023-04-23T06:20:13;99528.88;;;16.22;57.08
76762;BME280;65705;51.032;13.790;2023-04-23T06:22:48;99533.72;;;16.32;57.18
76762;BME280;65705;51.032;13.790;2023-04-23T06:25:13;99535.31;;;16.46;56.74
76762;BME280;65705;51.032;13.790;2023-04-23T06:27:39;99534.28;;;16.53;56.66
76762;BME280;65705;51.032;13.790;2023-04-23T06:30:12;99529.94;;;16.65;56.76
76762;BME280;65705;51.032;13.790;2023-04-23T06:32:38;99536.00;;;16.72;56.66
76762;BME280;65705;51.032;13.790;2023-04-23T06:35:05;99534.34;;;16.84;56.23
76762;BME280;65705;51.032;13.790;2023-04-23T06:37:31;99537.09;;;16.96;56.11
76762;BME280;65705;51.032;13.790;2023-04-23T06:39:58;99548.22;;;17.11;55.95
76762;BME280;65705;51.032;13.790;2023-04-23T06:42:23;99540.22;;;17.18;55.97
76762;BME280;65705;51.032;13.790;2023-04-23T06:45:07;99547.34;;;17.24;55.93
76762;BME280;65705;51.032;13.790;2023-04-23T06:47:33;99549.59;;;17.20;55.99
76762;BME280;65705;51.032;13.790;2023-04-23T06:49:58;99546.72;;;17.22;56.22
76762;BME280;65705;51.032;13.790;2023-04-23T06:52:25;99547.78;;;17.21;55.71
76762;BME280;65705;51.032;13.790;2023-04-23T06:54:51;99550.19;;;17.22;55.98
76762;BME280;65705;51.032;13.790;2023-04-23T06:57:17;99545.88;;;17.28;56.05
76762;BME280;65705;51.032;13.790;2023-04-23T06:59:42;99554.63;;;17.28;55.98
76762;BME280;65705;51.032;13.790;2023-04-23T07:02:08;99552.97;;;17.34;56.04
76762;BME280;65705;51.032;13.790;2023-04-23T07:04:34;99549.88;;;17.37;56.34
76762;BME280;65705;51.032;13.790;2023-04-23T07:07:00;99543.78;;;17.36;55.60
76762;BME280;65705;51.032;13.790;2023-04-23T07:09:26;99548.00;;;17.44;55.65
76762;BME280;65705;51.032;13.790;2023-04-23T07:11:52;99549.19;;;17.48;54.82
76762;BME280;65705;51.032;13.790;2023-04-23T07:14:26;99546.50;;;17.54;54.59
76762;BME280;65705;51.032;13.790;2023-04-23T07:17:13;99548.09;;;17.62;53.59
76762;BME280;65705;51.032;13.790;2023-04-23T07:19:39;99549.03;;;17.67;52.65
76762;BME280;65705;51.032;13.790;2023-04-23T07:22:04;99559.81;;;17.72;52.73
76762;BME280;65705;51.032;13.790;2023-04-23T07:24:33;99546.94;;;17.76;52.72
76762;BME280;65705;51.032;13.790;2023-04-23T07:26:59;99545.06;;;17.76;52.72
76762;BME280;65705;51.032;13.790;2023-04-23T07:29:25;99557.25;;;17.84;52.36
76762;BME280;65705;51.032;13.790;2023-04-23T07:31:51;99549.06;;;17.85;52.45
76762;BME280;65705;51.032;13.790;2023-04-23T07:34:17;99554.38;;;17.85;52.24
76762;BME280;65705;51.032;13.790;2023-04-23T07:36:42;99541.06;;;17.92;52.46
76762;BME280;65705;51.032;13.790;2023-04-23T07:39:08;99556.47;;;18.02;52.55
76762;BME280;65705;51.032;13.790;2023-04-23T07:41:34;99550.28;;;18.08;51.73
76762;BME280;65705;51.032;13.790;2023-04-23T07:44:01;99551.75;;;18.04;52.13
76762;BME280;65705;51.032;13.790;2023-04-23T07:46:27;99559.34;;;18.00;52.08
76762;BME280;65705;51.032;13.790;2023-04-23T07:48:53;99562.59;;;18.02;52.14
76762;BME280;65705;51.032;13.790;2023-04-23T07:51:46;99564.44;;;18.02;52.71
76762;BME280;65705;51.032;13.790;2023-04-23T07:54:12;99560.75;;;18.03;52.60
76762;BME280;65705;51.032;13.790;2023-04-23T07:56:38;99559.72;;;18.04;52.43
76762;BME280;65705;51.032;13.790;2023-04-23T07:59:04;99560.75;;;18.03;52.32
76762;BME280;65705;51.032;13.790;2023-04-23T08:01:31;99571.31;;;18.09;52.46
76762;BME280;65705;51.032;13.790;2023-04-23T08:03:57;99561.72;;;18.08;52.31
76762;BME280;65705;51.032;13.790;2023-04-23T08:06:25;99563.94;;;18.11;52.60
76762;BME280;65705;51.032;13.790;2023-04-23T08:08:57;99560.78;;;18.21;52.38
76762;BME280;65705;51.032;13.790;2023-04-23T08:11:23;99569.97;;;18.18;52.33
76762;BME280;65705;51.032;13.790;2023-04-23T08:13:49;99562.97;;;18.24;52.40
76762;BME280;65705;51.032;13.790;2023-04-23T08:16:14;99563.06;;;18.17;52.14
76762;BME280;65705;51.032;13.790;2023-04-23T08:18:40;99560.78;;;18.21;52.47
76762;BME280;65705;51.032;13.790;2023-04-23T08:21:06;99559.13;;;18.38;52.68
76762;BME280;65705;51.032;13.790;2023-04-23T08:23:32;99561.91;;;18.49;52.16
76762;BME280;65705;51.032;13.790;2023-04-23T08:25:57;99574.06;;;18.57;51.57
76762;BME280;65705;51.032;13.790;2023-04-23T08:28:23;99574.28;;;18.55;51.81
76762;BME280;65705;51.032;13.790;2023-04-23T08:30:49;99570.81;;;18.55;52.13
76762;BME280;65705;51.032;13.790;2023-04-23T08:33:15;99576.38;;;18.53;52.53
76762;BME280;65705;51.032;13.790;2023-04-23T08:35:41;99569.31;;;18.59;52.36
76762;BME280;65705;51.032;13.790;2023-04-23T08:38:07;99571.00;;;18.71;52.16
76762;BME280;65705;51.032;13.790;2023-04-23T08:40:35;99570.03;;;18.84;51.96
76762;BME280;65705;51.032;13.790;2023-04-23T08:43:24;99576.81;;;18.98;50.93
76762;BME280;65705;51.032;13.790;2023-04-23T08:45:52;99586.13;;;18.89;50.98
76762;BME280;65705;51.032;13.790;2023-04-23T08:48:18;99580.81;;;18.89;51.83
76762;BME280;65705;51.032;13.790;2023-04-23T08:50:44;99585.25;;;18.77;51.89
76762;BME280;65705;51.032;13.790;2023-04-23T08:53:16;99583.38;;;18.66;51.90
76762;BME280;65705;51.032;13.790;2023-04-23T08:55:44;99589.66;;;18.53;52.08
76762;BME280;65705;51.032;13.790;2023-04-23T08:58:11;99588.34;;;18.38;52.27
76762;BME280;65705;51.032;13.790;2023-04-23T09:00:38;99591.31;;;18.30;52.82
76762;BME280;65705;51.032;13.790;2023-04-23T09:03:04;99595.44;;;18.26;53.04
76762;BME280;65705;51.032;13.790;2023-04-23T09:05:31;99586.97;;;18.17;53.31
76762;BME280;65705;51.032;13.790;2023-04-23T09:07:57;99583.84;;;18.20;53.13
76762;BME280;65705;51.032;13.790;2023-04-23T09:10:24;99590.97;;;18.26;52.92
76762;BME280;65705;51.032;13.790;2023-04-23T09:12:49;99591.09;;;18.31;53.01
76762;BME280;65705;51.032;13.790;2023-04-23T09:15:15;99592.88;;;18.37;52.30
76762;BME280;65705;51.032;13.790;2023-04-23T09:17:43;99592.16;;;18.48;52.31
76762;BME280;65705;51.032;13.790;2023-04-23T09:20:11;99595.63;;;18.67;52.24
76762;BME280;65705;51.032;13.790;2023-04-23T09:22:41;99594.41;;;18.81;51.36
76762;BME280;65705;51.032;13.790;2023-04-23T09:25:08;99602.81;;;18.96;50.90
76762;BME280;65705;51.032;13.790;2023-04-23T09:27:34;99611.19;;;19.11;50.44
76762;BME280;65705;51.032;13.790;2023-04-23T09:30:08;99608.69;;;19.16;51.00
76762;BME280;65705;51.032;13.790;2023-04-23T09:32:40;99609.81;;;19.20;50.45
76762;BME280;65705;51.032;13.790;2023-04-23T09:35:08;99614.72;;;19.23;50.22
76762;BME280;65705;51.032;13.790;2023-04-23T09:37:35;99606.94;;;19.22;50.26
76762;BME280;65705;51.032;13.790;2023-04-23T11:33:08;99595.47;;;18.80;51.61
76762;BME280;65705;51.032;13.790;2023-04-23T11:46:59;99593.16;;;19.43;52.01
76762;BME280;65705;51.032;13.790;2023-04-23T11:49:25;99598.25;;;19.56;51.27
76762;BME280;65705;51.032;13.790;2023-04-23T11:51:51;99587.06;;;19.65;50.21
76762;BME280;65705;51.032;13.790;2023-04-23T11:54:17;99592.06;;;19.73;50.54
76762;BME280;65705;51.032;13.790;2023-04-23T11:56:44;99595.06;;;19.88;48.53
76762;BME280;65705;51.032;13.790;2023-04-23T11:59:10;99589.50;;;19.90;48.64
76762;BME280;65705;51.032;13.790;2023-04-23T12:01:46;99592.88;;;19.85;48.96
76762;BME280;65705;51.032;13.790;2023-04-23T12:04:14;99589.16;;;19.75;49.20
76762;BME280;65705;51.032;13.790;2023-04-23T12:06:42;99589.22;;;19.45;49.56
76762;BME280;65705;51.032;13.790;2023-04-23T12:09:09;99588.97;;;19.47;50.16
76762;BME280;65705;51.032;13.790;2023-04-23T12:11:36;99588.91;;;19.53;49.68
76762;BME280;65705;51.032;13.790;2023-04-23T12:14:02;99592.31;;;19.31;49.85
76762;BME280;65705;51.032;13.790;2023-04-23T12:16:47;99593.97;;;19.14;50.57
76762;BME280;65705;51.032;13.790;2023-04-23T12:19:26;99599.44;;;18.89;50.72
76762;BME280;65705;51.032;13.790;2023-04-23T12:22:00;99588.72;;;18.77;51.47
76762;BME280;65705;51.032;13.790;2023-04-23T12:24:40;99593.28;;;18.88;51.57
76762;BME280;65705;51.032;13.790;2023-04-23T12:27:13;99597.41;;;19.03;51.55
76762;BME280;65705;51.032;13.790;2023-04-23T12:29:40;99596.72;;;19.07;51.61
76762;BME280;65705;51.032;13.790;2023-04-23T12:32:09;99604.84;;;19.12;51.55
76762;BME280;65705;51.032;13.790;2023-04-23T12:34:36;99593.47;;;19.05;51.70
76762;BME280;65705;51.032;13.790;2023-04-23T12:37:05;99599.28;;;18.84;51.91
76762;BME280;65705;51.032;13.790;2023-04-23T12:39:33;99595.63;;;18.97;51.95
76762;BME280;65705;51.032;13.790;2023-04-23T12:42:00;99589.38;;;19.21;51.34
76762;BME280;65705;51.032;13.790;2023-04-23T12:44:27;99581.47;;;19.44;50.54
76762;BME280;65705;51.032;13.790;2023-04-23T12:46:55;99578.69;;;19.50;50.63
76762;BME280;65705;51.032;13.790;2023-04-23T12:49:21;99579.84;;;19.54;48.28
76762;BME280;65705;51.032;13.790;2023-04-23T12:51:47;99584.81;;;19.39;49.09
76762;BME280;65705;51.032;13.790;2023-04-23T12:54:14;99579.84;;;19.54;48.76
76762;BME280;65705;51.032;13.790;2023-04-23T12:56:40;99574.06;;;19.46;48.80
76762;BME280;65705;51.032;13.790;2023-04-23T12:59:06;99570.97;;;19.60;48.59
76762;BME280;65705;51.032;13.790;2023-04-23T13:01:32;99573.13;;;19.40;50.62
76762;BME280;65705;51.032;13.790;2023-04-23T13:03:58;99562.84;;;19.67;50.79
76762;BME280;65705;51.032;13.790;2023-04-23T13:06:24;99563.13;;;19.77;49.88
76762;BME280;65705;51.032;13.790;2023-04-23T13:08:51;99560.09;;;19.73;49.41
76762;BME280;65705;51.032;13.790;2023-04-23T13:11:19;99557.91;;;19.82;49.68
76762;BME280;65705;51.032;13.790;2023-04-23T13:13:45;99551.63;;;19.65;49.09
76762;BME280;65705;51.032;13.790;2023-04-23T13:16:10;99551.94;;;19.45;49.11
76762;BME280;65705;51.032;13.790;2023-04-23T13:18:36;99552.31;;;19.72;49.08
76762;BME280;65705;51.032;13.790;2023-04-23T13:21:02;99548.72;;;20.01;48.64
76762;BME280;65705;51.032;13.790;2023-04-23T13:23:28;99545.13;;;20.19;48.66
76762;BME280;65705;51.032;13.790;2023-04-23T13:25:54;99533.69;;;20.18;47.78
76762;BME280;65705;51.032;13.790;2023-04-23T13:28:19;99540.03;;;20.29;47.33
76762;BME280;65705;51.032;13.790;2023-04-23T13:30:45;99539.22;;;20.28;47.32
76762;BME280;65705;51.032;13.790;2023-04-23T13:33:11;99525.56;;;20.02;47.31
76762;BME280;65705;51.032;13.790;2023-04-23T13:35:36;99516.53;;;20.03;47.86
76762;BME280;65705;51.032;13.790;2023-04-23T13:38:03;99518.94;;;20.04;48.38
76762;BME280;65705;51.032;13.790;2023-04-23T13:40:29;99517.78;;;20.12;48.37
76762;BME280;65705;51.032;13.790;2023-04-23T13:42:55;99515.81;;;20.19;47.00
76762;BME280;65705;51.032;13.790;2023-04-23T13:45:21;99508.41;;;20.09;47.43
76762;BME280;65705;51.032;13.790;2023-04-23T13:47:47;99514.78;;;20.20;47.30
76762;BME280;65705;51.032;13.790;2023-04-23T13:50:12;99500.97;;;20.34;46.99
76762;BME280;65705;51.032;13.790;2023-04-23T13:52:38;99500.25;;;20.39;46.09
76762;BME280;65705;51.032;13.790;2023-04-23T13:55:04;99501.41;;;20.43;46.17
76762;BME280;65705;51.032;13.790;2023-04-23T13:57:32;99498.53;;;20.33;46.89
76762;BME280;65705;51.032;13.790;2023-04-23T13:59:58;99494.75;;;20.17;47.25
76762;BME280;65705;51.032;13.790;2023-04-23T14:02:25;99495.53;;;20.06;47.56
76762;BME280;65705;51.032;13.790;2023-04-23T14:04:51;99492.53;;;20.03;47.85
76762;BME280;65705;51.032;13.790;2023-04-23T14:07:17;99495.91;;;19.98;48.19
76762;BME280;65705;51.032;13.790;2023-04-23T14:09:43;99490.69;;;19.91;48.18
76762;BME280;65705;51.032;13.790;2023-04-23T14:12:10;99486.81;;;19.71;47.89
76762;BME280;65705;51.032;13.790;2023-04-23T14:14:36;99482.84;;;19.50;48.88
76762;BME280;65705;51.032;13.790;2023-04-23T14:17:02;99481.34;;;19.54;49.11
76762;BME280;65705;51.032;13.790;2023-04-23T14:19:28;99473.94;;;19.56;49.19
76762;BME280;65705;51.032;13.790;2023-04-23T14:21:54;99472.59;;;19.54;50.08
76762;BME280;65705;51.032;13.790;2023-04-23T14:24:27;99472.34;;;19.55;50.95
76762;BME280;65705;51.032;13.790;2023-04-23T14:26:57;99465.28;;;19.61;51.20
76762;BME280;65705;51.032;13.790;2023-04-23T14:29:28;99464.13;;;19.57;51.80
76762;BME280;65705;51.032;13.790;2023-04-23T14:31:55;99465.63;;;19.64;51.67
76762;BME280;65705;51.032;13.790;2023-04-23T14:34:21;99475.94;;;19.49;51.49
76762;BME280;65705;51.032;13.790;2023-04-23T14:36:47;99470.97;;;19.41;52.45
76762;BME280;65705;51.032;13.790;2023-04-23T14:39:14;99464.56;;;19.31;52.71
76762;BME280;65705;51.032;13.790;2023-04-23T14:41:40;99465.38;;;19.20;53.05
76762;BME280;65705;51.032;13.790;2023-04-23T14:44:06;99457.94;;;19.10;53.44
76762;BME280;65705;51.032;13.790;2023-04-23T14:46:32;99451.56;;;19.00;53.82
76762;BME280;65705;51.032;13.790;2023-04-23T14:48:57;99447.97;;;18.94;54.07
76762;BME280;65705;51.032;13.790;2023-04-23T14:51:23;99453.16;;;18.89;53.73
76762;BME280;65705;51.032;13.790;2023-04-23T14:53:50;99446.31;;;18.81;53.88